Time;durP1;ratioP1;P1;durP2;ratioP2;P2;SDS_P1;SDS_P2;PMS_P1;PMS_P2;Temp;Humidity;BMP_temperature;BMP_pressure;BME280_temperature;BME280_humidity;BME280_pressure;Samples;Min_cycle;Max_cycle;Signal;HPM_P1;HPM_P2
2022/11/19 00:01:08;;;;;;;25.47;18.37;;;5.50;99.90;;;;;;5014477;28;20290;-78
2022/11/19 00:03:36;;;;;;;23.40;17.73;;;5.50;99.90;;;;;;5015220;28;20225;-79
2022/11/19 00:06:05;;;;;;;25.50;17.33;;;5.60;99.90;;;;;;5014611;28;20203;-78
2022/11/19 00:08:32;;;;;;;25.10;17.60;;;5.50;99.90;;;;;;5015164;28;20215;-79
2022/11/19 00:11:04;;;;;;;22.13;17.23;;;5.50;99.90;;;;;;5014064;28;20200;-78
2022/11/19 00:13:30;;;;;;;24.27;17.00;;;5.50;99.90;;;;;;5013923;28;20199;-80
2022/11/19 00:16:02;;;;;;;25.07;18.20;;;5.50;99.90;;;;;;5014669;28;20202;-78
2022/11/19 00:18:29;;;;;;;25.50;18.87;;;5.50;99.90;;;;;;5014587;28;20265;-78
2022/11/19 00:21:01;;;;;;;25.23;18.00;;;5.50;99.90;;;;;;5013501;28;20195;-76
2022/11/19 00:23:28;;;;;;;28.03;18.50;;;5.50;99.90;;;;;;5014785;28;20283;-82
2022/11/19 00:25:55;;;;;;;26.17;18.47;;;5.50;99.90;;;;;;5014164;28;20203;-81
2022/11/19 00:28:21;;;;;;;27.03;18.47;;;5.50;99.90;;;;;;5013854;28;20245;-79
2022/11/19 00:30:48;;;;;;;28.43;18.37;;;5.40;99.90;;;;;;5034043;28;20531;-81
2022/11/19 00:33:17;;;;;;;27.53;19.03;;;5.50;99.90;;;;;;5032741;28;20210;-81
2022/11/19 00:35:44;;;;;;;28.53;19.13;;;5.50;99.90;;;;;;5033286;28;20287;-79
2022/11/19 00:38:10;;;;;;;28.23;18.97;;;5.50;99.90;;;;;;5034317;28;20202;-81
2022/11/19 00:40:37;;;;;;;31.10;20.70;;;5.40;99.90;;;;;;5033457;28;20626;-80
2022/11/19 00:45:49;;;;;;;26.13;19.23;;;5.20;99.90;;;;;;5034115;28;20350;-80
2022/11/19 00:48:17;;;;;;;28.33;18.60;;;5.30;99.90;;;;;;5021498;28;20246;-78
2022/11/19 00:50:44;;;;;;;29.17;20.07;;;5.20;99.90;;;;;;5025494;28;20273;-79
2022/11/19 00:53:10;;;;;;;25.70;18.73;;;5.20;99.90;;;;;;5033570;28;20212;-79
2022/11/19 00:55:37;;;;;;;26.37;18.80;;;5.20;99.90;;;;;;5032366;28;20195;-78
2022/11/19 00:58:04;;;;;;;27.23;19.07;;;5.20;99.90;;;;;;5033263;28;20199;-78
2022/11/19 01:00:31;;;;;;;29.80;19.93;;;5.20;99.90;;;;;;5015129;28;20290;-80
2022/11/19 01:02:58;;;;;;;30.30;20.67;;;5.20;99.90;;;;;;5012748;28;20211;-78
2022/11/19 01:05:26;;;;;;;28.17;19.83;;;5.20;99.90;;;;;;5013445;28;20211;-79
2022/11/19 01:07:54;;;;;;;30.53;20.87;;;5.20;99.90;;;;;;5029845;28;20222;-79
2022/11/19 01:10:20;;;;;;;29.00;19.47;;;5.20;99.90;;;;;;5033160;28;20206;-79
2022/11/19 01:15:37;;;;;;;31.90;20.50;;;5.10;99.90;;;;;;5008857;28;20211;-81
2022/11/19 01:18:04;;;;;;;31.10;20.50;;;5.10;99.90;;;;;;5012794;28;20200;-78
2022/11/19 01:20:32;;;;;;;29.77;20.37;;;5.10;99.90;;;;;;5013038;28;20200;-79
2022/11/19 01:22:59;;;;;;;28.20;19.27;;;5.10;99.90;;;;;;5013540;28;20612;-80
2022/11/19 01:25:26;;;;;;;29.37;21.07;;;5.10;99.90;;;;;;5012069;28;20217;-79
2022/11/19 01:27:52;;;;;;;31.67;21.53;;;5.10;99.90;;;;;;5013948;28;20209;-82
2022/11/19 01:30:19;;;;;;;32.87;20.37;;;5.10;99.90;;;;;;5014002;28;20322;-80
2022/11/19 01:32:46;;;;;;;28.27;20.30;;;5.10;99.90;;;;;;5031637;28;20213;-79
2022/11/19 01:35:13;;;;;;;31.83;21.20;;;5.00;99.90;;;;;;5033212;28;20205;-77
2022/11/19 01:37:41;;;;;;;29.13;20.80;;;5.00;99.90;;;;;;5029932;28;20202;-80
2022/11/19 01:40:10;;;;;;;30.73;21.33;;;5.00;99.90;;;;;;5033534;28;20195;-79
2022/11/19 01:42:52;;;;;;;34.43;21.23;;;5.00;99.90;;;;;;5025521;28;20210;-80
2022/11/19 01:45:29;;;;;;;31.67;20.57;;;5.00;99.90;;;;;;5026732;28;20206;-80
2022/11/19 01:47:58;;;;;;;33.77;21.50;;;5.00;99.90;;;;;;5022632;28;20293;-79
2022/11/19 01:50:27;;;;;;;30.43;19.80;;;5.00;99.90;;;;;;5031537;28;20222;-78
2022/11/19 01:52:56;;;;;;;30.43;21.30;;;4.90;99.90;;;;;;5031483;28;20199;-78
2022/11/19 01:55:22;;;;;;;28.97;20.37;;;4.90;99.90;;;;;;5031763;28;20217;-78
2022/11/19 01:57:56;;;;;;;31.83;21.23;;;4.90;99.90;;;;;;5032329;28;20218;-79
2022/11/19 02:00:23;;;;;;;33.43;22.47;;;4.90;99.90;;;;;;5030894;28;20849;-78
2022/11/19 02:02:50;;;;;;;27.80;20.03;;;4.80;99.90;;;;;;5015320;28;20293;-79
2022/11/19 02:05:18;;;;;;;27.60;20.23;;;4.80;99.90;;;;;;5032485;28;20205;-78
2022/11/19 02:07:52;;;;;;;27.73;21.17;;;4.80;99.90;;;;;;5029120;28;20194;-79
2022/11/19 02:10:24;;;;;;;31.43;22.10;;;4.80;99.90;;;;;;5012846;28;20183;-79
2022/11/19 02:13:02;;;;;;;30.20;21.93;;;4.80;99.90;;;;;;5012495;28;20201;-78
2022/11/19 02:15:38;;;;;;;28.00;21.23;;;4.80;99.90;;;;;;5014483;28;20498;-81
2022/11/19 02:18:28;;;;;;;31.57;22.23;;;4.90;99.90;;;;;;5021677;28;20598;-79
2022/11/19 02:21:07;;;;;;;29.27;22.50;;;4.90;99.90;;;;;;5032090;28;20210;-79
2022/11/19 02:24:09;;;;;;;30.90;22.40;;;4.90;99.90;;;;;;5031994;28;20281;-80
2022/11/19 02:27:18;;;;;;;39.27;23.27;;;4.90;99.90;;;;;;5032201;28;20197;-80
2022/11/19 02:30:07;;;;;;;31.63;23.53;;;4.90;99.90;;;;;;5029677;28;20301;-79
2022/11/19 02:32:39;;;;;;;35.53;23.73;;;4.90;99.90;;;;;;5032022;28;20662;-79
2022/11/19 02:35:17;;;;;;;32.33;23.73;;;4.80;99.90;;;;;;5028518;28;21183;-79
2022/11/19 02:37:49;;;;;;;33.57;25.03;;;4.80;99.90;;;;;;5007131;28;20211;-80
2022/11/19 02:40:24;;;;;;;31.90;23.77;;;4.80;99.90;;;;;;5013030;28;20198;-80
2022/11/19 02:42:58;;;;;;;31.70;24.27;;;4.80;99.90;;;;;;5017733;28;20204;-79
2022/11/19 02:45:30;;;;;;;31.83;23.53;;;4.80;99.90;;;;;;5029296;28;20199;-78
2022/11/19 02:48:00;;;;;;;34.97;25.23;;;4.70;99.90;;;;;;5030525;28;20848;-79
2022/11/19 02:50:33;;;;;;;31.03;23.83;;;4.70;99.90;;;;;;5030749;28;20245;-79
2022/11/19 02:53:01;;;;;;;34.23;25.77;;;4.70;99.90;;;;;;5031785;28;20373;-78
2022/11/19 02:55:28;;;;;;;33.47;24.50;;;4.70;99.90;;;;;;5030770;28;20203;-79
2022/11/19 02:57:58;;;;;;;35.20;25.77;;;4.70;99.90;;;;;;5035427;28;20572;-80
2022/11/19 03:06:05;;;;;;;32.13;23.53;;;4.60;99.90;;;;;;5016007;28;20596;-80
2022/11/19 03:08:32;;;;;;;33.80;24.30;;;4.60;99.90;;;;;;5019465;28;20218;-79
2022/11/19 03:11:07;;;;;;;31.10;23.80;;;4.60;99.90;;;;;;5033175;28;20199;-79
2022/11/19 03:16:43;;;;;;;30.97;23.70;;;4.50;99.90;;;;;;5034805;28;20198;-78
2022/11/19 03:19:23;;;;;;;31.53;23.83;;;4.50;99.90;;;;;;5035594;28;20198;-77
2022/11/19 03:21:54;;;;;;;35.17;25.40;;;4.50;99.90;;;;;;5015988;28;20195;-78
2022/11/19 03:24:28;;;;;;;31.00;24.63;;;4.50;99.90;;;;;;5014786;28;20706;-80
2022/11/19 03:26:58;;;;;;;28.67;22.83;;;4.50;99.90;;;;;;5026692;28;20641;-79
2022/11/19 03:29:27;;;;;;;27.30;21.00;;;4.50;99.90;;;;;;5034503;28;20713;-79
2022/11/19 03:32:00;;;;;;;28.20;21.67;;;4.50;99.90;;;;;;5019156;28;20487;-77
2022/11/19 03:34:30;;;;;;;27.17;21.47;;;4.40;99.90;;;;;;5014978;28;20196;-79
2022/11/19 03:37:00;;;;;;;28.30;21.80;;;4.40;99.90;;;;;;5027581;28;20214;-77
2022/11/19 03:39:27;;;;;;;27.30;21.97;;;4.40;99.90;;;;;;5034535;28;20602;-78
2022/11/19 03:41:56;;;;;;;28.33;21.43;;;4.40;99.90;;;;;;5034833;28;20191;-76
2022/11/19 03:44:26;;;;;;;26.70;20.43;;;4.40;99.90;;;;;;5026269;28;20205;-77
2022/11/19 03:47:00;;;;;;;26.67;20.00;;;4.30;99.90;;;;;;5024102;28;20213;-78
2022/11/19 03:49:31;;;;;;;26.27;20.33;;;4.40;99.90;;;;;;5034708;28;20226;-78
2022/11/19 03:52:02;;;;;;;27.53;20.57;;;4.30;99.90;;;;;;5033963;28;20195;-79
2022/11/19 03:54:30;;;;;;;23.53;18.33;;;4.30;99.90;;;;;;5024882;28;20287;-77
2022/11/19 03:56:58;;;;;;;25.00;19.87;;;4.30;99.90;;;;;;5018176;28;20207;-78
2022/11/19 03:59:26;;;;;;;24.17;18.87;;;4.30;99.90;;;;;;5033493;28;20199;-78
2022/11/19 04:01:57;;;;;;;22.70;18.20;;;4.30;99.90;;;;;;5033988;28;20202;-76
2022/11/19 04:04:37;;;;;;;24.33;18.37;;;4.30;99.90;;;;;;5033968;28;20490;-80
2022/11/19 04:07:10;;;;;;;22.53;17.43;;;4.30;99.90;;;;;;5032948;28;20221;-79
2022/11/19 04:09:38;;;;;;;23.80;18.13;;;4.20;99.90;;;;;;5034238;28;20218;-78
2022/11/19 04:12:06;;;;;;;21.80;17.80;;;4.20;99.90;;;;;;5021995;28;20199;-78
2022/11/19 04:14:33;;;;;;;21.13;17.10;;;4.20;99.90;;;;;;5034085;28;20207;-77
2022/11/19 04:17:01;;;;;;;22.07;16.73;;;4.20;99.90;;;;;;5034207;28;20281;-79
2022/11/19 04:19:29;;;;;;;21.13;16.33;;;4.10;99.90;;;;;;5033814;28;20203;-79
2022/11/19 04:21:56;;;;;;;21.37;16.23;;;4.10;99.90;;;;;;5029810;28;20207;-80
2022/11/19 04:24:23;;;;;;;19.67;15.30;;;4.10;99.90;;;;;;5013558;28;20510;-78
2022/11/19 04:26:49;;;;;;;21.20;15.87;;;4.00;99.90;;;;;;5013904;28;20231;-79
2022/11/19 04:29:16;;;;;;;21.53;15.40;;;4.00;99.90;;;;;;5021272;28;20214;-79
2022/11/19 04:31:43;;;;;;;20.73;15.47;;;4.00;99.90;;;;;;5033512;28;20240;-78
2022/11/19 04:34:10;;;;;;;19.33;15.43;;;4.00;99.90;;;;;;5031297;28;20211;-79
2022/11/19 04:36:40;;;;;;;18.10;14.93;;;3.90;99.90;;;;;;5033672;28;20513;-80
2022/11/19 04:39:08;;;;;;;20.50;14.87;;;3.90;99.90;;;;;;5033492;28;20202;-78
2022/11/19 04:41:35;;;;;;;19.80;14.17;;;3.80;99.90;;;;;;5032683;28;20770;-80
2022/11/19 04:44:03;;;;;;;18.33;14.63;;;3.80;99.90;;;;;;5033588;28;20202;-78
2022/11/19 04:46:30;;;;;;;18.17;14.13;;;3.70;99.90;;;;;;5033555;28;20545;-78
2022/11/19 04:48:57;;;;;;;18.33;13.53;;;3.70;99.90;;;;;;5030083;28;20230;-78
2022/11/19 04:51:25;;;;;;;19.40;14.83;;;3.70;99.90;;;;;;5013315;28;20196;-78
2022/11/19 04:53:54;;;;;;;16.53;12.90;;;3.70;99.90;;;;;;5022968;28;20206;-78
2022/11/19 04:56:20;;;;;;;17.17;13.33;;;3.60;99.90;;;;;;5033052;28;20213;-78
2022/11/19 04:58:48;;;;;;;21.60;14.43;;;3.50;99.90;;;;;;5032702;28;20604;-77
2022/11/19 05:01:14;;;;;;;18.23;13.33;;;3.50;99.90;;;;;;5032508;28;20224;-76
2022/11/19 05:03:41;;;;;;;16.13;12.70;;;3.50;99.90;;;;;;5031687;28;20517;-79
2022/11/19 05:06:08;;;;;;;14.87;11.33;;;3.50;99.90;;;;;;5033037;28;20211;-80
2022/11/19 05:08:35;;;;;;;15.00;11.67;;;3.50;99.90;;;;;;5032777;28;20198;-78
2022/11/19 05:11:03;;;;;;;14.77;10.73;;;3.50;99.90;;;;;;5033061;28;20223;-78
2022/11/19 05:13:30;;;;;;;15.40;11.43;;;3.40;99.90;;;;;;5022267;28;20215;-78
2022/11/19 05:15:57;;;;;;;16.83;11.70;;;3.40;99.90;;;;;;5013026;28;20211;-79
2022/11/19 05:18:24;;;;;;;17.90;12.03;;;3.30;99.90;;;;;;5012812;28;20204;-77
2022/11/19 05:20:51;;;;;;;16.10;11.70;;;3.30;99.90;;;;;;5030194;28;20214;-77
2022/11/19 05:23:17;;;;;;;13.80;10.73;;;3.30;99.90;;;;;;5032983;28;20205;-75
2022/11/19 05:25:44;;;;;;;13.80;10.80;;;3.30;99.90;;;;;;5033152;28;20202;-76
2022/11/19 05:28:12;;;;;;;13.50;10.20;;;3.30;99.90;;;;;;5032576;28;20493;-82
2022/11/19 05:30:39;;;;;;;13.13;9.83;;;3.30;99.90;;;;;;5017281;28;20249;-79
2022/11/19 05:33:06;;;;;;;14.47;10.37;;;3.20;99.90;;;;;;5013268;28;20604;-80
2022/11/19 05:35:33;;;;;;;13.73;10.13;;;3.20;99.90;;;;;;5032999;28;20199;-81
2022/11/19 05:38:00;;;;;;;15.47;10.80;;;3.20;99.90;;;;;;5018420;28;20207;-80
2022/11/19 05:40:27;;;;;;;13.27;10.03;;;3.20;99.90;;;;;;5012604;28;20619;-80
2022/11/19 05:42:53;;;;;;;14.00;10.00;;;3.30;99.90;;;;;;5013642;28;20210;-80
2022/11/19 05:45:22;;;;;;;12.37;8.97;;;3.20;99.90;;;;;;5019184;28;20217;-78
2022/11/19 05:47:54;;;;;;;13.63;10.47;;;3.20;99.90;;;;;;5032585;28;20599;-80
2022/11/19 05:50:21;;;;;;;15.37;10.30;;;3.10;99.90;;;;;;5032085;28;20234;-81
2022/11/19 05:52:48;;;;;;;14.47;10.27;;;3.20;99.90;;;;;;5031532;28;20206;-82
2022/11/19 05:55:15;;;;;;;13.30;9.83;;;3.10;99.90;;;;;;5031700;28;20221;-81
2022/11/19 05:57:43;;;;;;;12.63;9.70;;;3.10;99.90;;;;;;5031722;28;20195;-79
2022/11/19 06:00:11;;;;;;;12.13;9.03;;;3.10;99.90;;;;;;5031591;28;20203;-78
2022/11/19 06:02:39;;;;;;;12.40;9.50;;;3.00;99.90;;;;;;5031846;28;20206;-79
2022/11/19 06:05:07;;;;;;;12.97;10.10;;;3.00;99.90;;;;;;5029289;28;20694;-79
2022/11/19 06:07:34;;;;;;;14.20;10.47;;;3.00;99.90;;;;;;5031874;28;20203;-79
2022/11/19 06:10:01;;;;;;;13.60;10.43;;;3.00;99.90;;;;;;5031550;28;20223;-78
2022/11/19 06:12:27;;;;;;;13.50;10.20;;;3.00;99.90;;;;;;5031197;28;20486;-79
2022/11/19 06:14:54;;;;;;;16.67;9.90;;;3.00;99.90;;;;;;5031846;28;20226;-79
2022/11/19 06:17:21;;;;;;;12.50;9.37;;;3.00;99.90;;;;;;5030664;28;20206;-77
2022/11/19 06:19:49;;;;;;;12.07;9.17;;;3.00;99.90;;;;;;5032220;28;20293;-80
2022/11/19 06:22:16;;;;;;;13.30;9.33;;;3.00;99.90;;;;;;5042273;23;20501;-80
2022/11/19 06:24:43;;;;;;;11.37;9.07;;;2.90;99.90;;;;;;5071825;28;20667;-78
2022/11/19 06:27:10;;;;;;;11.70;8.83;;;2.80;99.90;;;;;;5070272;28;20202;-77
2022/11/19 06:29:36;;;;;;;11.90;8.70;;;2.80;99.90;;;;;;5071725;28;20647;-78
2022/11/19 06:32:03;;;;;;;13.60;9.20;;;2.80;99.90;;;;;;5076380;28;20201;-77
2022/11/19 06:34:30;;;;;;;16.20;10.70;;;2.80;99.90;;;;;;5070243;28;20202;-78
2022/11/19 06:36:58;;;;;;;12.53;9.73;;;2.80;99.90;;;;;;5065042;28;20201;-80
2022/11/19 06:39:25;;;;;;;13.97;10.10;;;2.70;99.90;;;;;;5075695;28;20291;-77
2022/11/19 06:41:52;;;;;;;12.67;9.53;;;2.70;99.90;;;;;;5061295;28;20208;-79
2022/11/19 06:44:19;;;;;;;13.80;9.63;;;2.70;99.90;;;;;;5055494;28;20671;-78
2022/11/19 06:46:46;;;;;;;12.50;9.73;;;2.70;99.90;;;;;;5055900;28;20194;-77
2022/11/19 06:49:13;;;;;;;14.37;10.07;;;2.70;99.90;;;;;;5054954;28;20228;-81
2022/11/19 06:51:40;;;;;;;14.10;10.57;;;2.70;99.90;;;;;;5054923;28;20602;-78
2022/11/19 06:54:09;;;;;;;15.23;10.67;;;2.70;99.90;;;;;;5055066;28;20296;-79
2022/11/19 06:56:36;;;;;;;15.73;11.07;;;2.70;99.90;;;;;;5055281;28;20210;-79
2022/11/19 06:59:03;;;;;;;14.17;10.23;;;2.60;99.90;;;;;;5054961;28;20260;-78
2022/11/19 07:01:30;;;;;;;11.93;9.20;;;2.70;99.90;;;;;;5054446;28;20476;-79
2022/11/19 07:03:57;;;;;;;16.77;10.57;;;2.60;99.90;;;;;;5055056;28;20216;-79
2022/11/19 07:06:23;;;;;;;14.63;10.63;;;2.60;99.90;;;;;;5055372;28;20594;-78
2022/11/19 07:08:50;;;;;;;15.63;10.67;;;2.50;99.90;;;;;;5054811;28;20189;-79
2022/11/19 07:11:28;;;;;;;13.77;10.07;;;2.50;99.90;;;;;;5055021;28;20266;-78
2022/11/19 07:13:58;;;;;;;14.73;10.87;;;2.50;99.90;;;;;;5054482;28;20209;-78
2022/11/19 07:16:26;;;;;;;16.70;11.47;;;2.40;99.90;;;;;;5054387;28;20838;-80
2022/11/19 07:18:53;;;;;;;14.03;9.93;;;2.40;99.90;;;;;;5055128;28;20228;-78
2022/11/19 07:21:20;;;;;;;15.60;10.80;;;2.40;99.90;;;;;;5060681;28;20200;-77
2022/11/19 07:23:47;;;;;;;17.00;11.37;;;2.50;99.90;;;;;;5061786;28;20234;-79
2022/11/19 07:26:14;;;;;;;14.57;10.50;;;2.40;99.90;;;;;;5054374;28;20194;-79
2022/11/19 07:28:42;;;;;;;14.17;11.03;;;2.40;99.90;;;;;;5054731;28;20289;-77
2022/11/19 07:31:09;;;;;;;13.60;10.73;;;2.40;99.90;;;;;;5053479;28;20406;-78
2022/11/19 07:33:38;;;;;;;13.93;10.40;;;2.40;99.90;;;;;;5059516;28;20207;-77
2022/11/19 07:36:06;;;;;;;16.53;11.37;;;2.30;99.90;;;;;;5054446;28;20209;-77
2022/11/19 07:38:33;;;;;;;15.97;11.10;;;2.30;99.90;;;;;;5053852;28;20198;-78
2022/11/19 07:40:59;;;;;;;13.93;10.67;;;2.30;99.90;;;;;;5063746;28;20594;-77
2022/11/19 07:43:25;;;;;;;17.33;11.63;;;2.30;99.90;;;;;;5053062;28;20198;-79
2022/11/19 07:45:54;;;;;;;15.90;11.13;;;2.40;99.90;;;;;;5054209;28;20204;-77
2022/11/19 07:48:20;;;;;;;14.80;10.73;;;2.40;99.90;;;;;;5071420;28;20292;-80
2022/11/19 07:50:51;;;;;;;17.47;11.47;;;2.40;99.90;;;;;;5066077;28;20251;-77
2022/11/19 07:53:19;;;;;;;15.40;10.30;;;2.40;99.90;;;;;;5074190;28;20197;-80
2022/11/19 07:55:46;;;;;;;15.07;11.00;;;2.30;99.90;;;;;;5066854;28;20456;-77
2022/11/19 07:58:14;;;;;;;16.00;11.70;;;2.40;99.90;;;;;;5053336;28;20220;-78
2022/11/19 08:00:41;;;;;;;15.53;11.40;;;2.40;99.90;;;;;;5062869;28;20190;-78
2022/11/19 08:03:11;;;;;;;15.07;11.17;;;2.30;99.90;;;;;;5059500;28;20205;-79
2022/11/19 08:05:40;;;;;;;14.30;10.43;;;2.40;99.90;;;;;;5061518;28;20220;-79
2022/11/19 08:08:07;;;;;;;14.43;10.53;;;2.30;99.90;;;;;;5071305;28;20213;-79
2022/11/19 08:10:35;;;;;;;15.40;11.20;;;2.30;99.90;;;;;;5053412;28;20313;-79
2022/11/19 08:13:03;;;;;;;15.53;10.50;;;2.30;99.90;;;;;;5057417;28;20235;-78
2022/11/19 08:15:30;;;;;;;15.13;10.77;;;2.20;99.90;;;;;;5054683;28;20476;-80
2022/11/19 08:18:11;;;;;;;13.90;11.03;;;2.20;99.90;;;;;;5070761;28;20563;-78
2022/11/19 08:20:39;;;;;;;15.20;10.57;;;2.20;99.90;;;;;;5064754;28;20224;-80
2022/11/19 08:23:06;;;;;;;13.97;10.13;;;2.20;99.90;;;;;;5053559;28;20244;-80
2022/11/19 08:25:33;;;;;;;15.20;10.87;;;2.10;99.90;;;;;;5053473;28;20198;-81
2022/11/19 08:28:01;;;;;;;13.83;10.10;;;2.10;99.90;;;;;;5053594;28;20209;-80
2022/11/19 08:30:28;;;;;;;14.93;10.43;;;2.00;99.90;;;;;;5054472;28;20224;-81
2022/11/19 08:32:55;;;;;;;14.20;9.93;;;2.00;99.90;;;;;;5052469;28;20217;-77
2022/11/19 08:35:22;;;;;;;14.80;10.47;;;1.90;99.90;;;;;;5053322;28;20194;-79
2022/11/19 08:37:51;;;;;;;14.87;10.70;;;1.80;99.90;;;;;;5052619;28;20208;-78
2022/11/19 08:40:18;;;;;;;15.33;11.40;;;1.90;99.90;;;;;;5051620;28;20621;-79
2022/11/19 08:42:59;;;;;;;13.27;10.20;;;1.90;99.90;;;;;;5066828;28;20600;-78
2022/11/19 08:45:30;;;;;;;14.80;10.80;;;1.90;99.90;;;;;;5072811;28;20276;-77
2022/11/19 08:47:58;;;;;;;14.43;10.73;;;1.90;99.90;;;;;;5058679;28;20202;-78
2022/11/19 08:50:25;;;;;;;14.47;10.03;;;1.90;99.90;;;;;;5052517;28;20753;-78
2022/11/19 08:52:59;;;;;;;15.10;10.87;;;1.90;99.90;;;;;;5052775;28;20488;-75
2022/11/19 08:55:28;;;;;;;17.57;10.47;;;1.80;99.90;;;;;;5052188;28;20190;-78
2022/11/19 08:58:00;;;;;;;13.90;10.63;;;1.90;99.90;;;;;;5054148;28;20208;-78
2022/11/19 09:00:27;;;;;;;14.67;10.63;;;1.90;99.90;;;;;;5064820;28;20276;-78
2022/11/19 09:02:54;;;;;;;17.07;11.43;;;1.90;99.90;;;;;;5067634;28;20292;-77
2022/11/19 09:05:21;;;;;;;14.87;11.00;;;1.90;99.90;;;;;;5053084;28;20198;-79
2022/11/19 09:07:48;;;;;;;13.30;9.80;;;1.90;99.90;;;;;;5052535;28;20209;-77
2022/11/19 09:10:17;;;;;;;16.47;10.77;;;1.90;99.90;;;;;;5053021;28;20443;-77
2022/11/19 09:12:44;;;;;;;18.27;11.20;;;1.90;99.90;;;;;;5052909;28;20351;-77
2022/11/19 09:15:12;;;;;;;15.50;10.77;;;1.90;99.90;;;;;;5052204;28;20668;-77
2022/11/19 09:17:39;;;;;;;13.97;9.57;;;1.90;99.90;;;;;;5053162;28;20202;-77
2022/11/19 09:20:07;;;;;;;15.00;10.70;;;1.90;99.90;;;;;;5052717;28;20629;-76
2022/11/19 09:22:34;;;;;;;13.87;10.43;;;1.90;99.90;;;;;;5051956;28;20780;-76
2022/11/19 09:25:01;;;;;;;12.83;9.57;;;2.00;99.90;;;;;;5065092;28;20205;-78
2022/11/19 09:27:30;;;;;;;13.17;9.90;;;2.00;99.90;;;;;;5072473;28;20202;-77
2022/11/19 09:29:57;;;;;;;13.90;10.90;;;2.10;99.90;;;;;;5061714;28;20208;-77
2022/11/19 09:32:24;;;;;;;15.43;10.13;;;2.10;99.90;;;;;;5052519;28;20202;-79
2022/11/19 09:34:51;;;;;;;13.97;10.60;;;2.10;99.90;;;;;;5052406;28;20202;-76
2022/11/19 09:37:18;;;;;;;14.80;10.90;;;2.00;99.90;;;;;;5061472;28;20209;-76
2022/11/19 09:39:45;;;;;;;13.47;10.03;;;2.10;99.90;;;;;;5052375;28;20616;-75
2022/11/19 09:42:16;;;;;;;14.63;10.53;;;2.10;99.90;;;;;;5052291;28;20758;-78
2022/11/19 09:45:02;;;;;;;15.40;10.20;;;2.10;99.90;;;;;;5051907;28;20201;-77
2022/11/19 09:47:44;;;;;;;13.63;10.17;;;2.20;99.90;;;;;;5052645;28;20196;-78
2022/11/19 09:50:16;;;;;;;12.43;9.63;;;2.20;99.90;;;;;;5052139;28;20228;-79
2022/11/19 09:52:46;;;;;;;13.33;11.03;;;2.30;99.90;;;;;;5052158;28;20726;-77
2022/11/19 09:55:18;;;;;;;13.70;10.50;;;2.30;99.90;;;;;;5052078;28;20289;-78
2022/11/19 09:57:49;;;;;;;14.37;10.27;;;2.30;99.90;;;;;;5051791;28;20208;-76
2022/11/19 10:00:21;;;;;;;13.87;10.23;;;2.30;99.90;;;;;;5051960;28;20208;-78
2022/11/19 10:02:49;;;;;;;14.37;10.37;;;2.40;99.90;;;;;;5051189;28;20197;-80
2022/11/19 10:05:22;;;;;;;13.67;9.77;;;2.40;99.90;;;;;;5051503;28;20212;-79
2022/11/19 10:08:01;;;;;;;13.80;10.03;;;2.40;99.90;;;;;;5052150;28;20292;-79
2022/11/19 10:10:37;;;;;;;13.37;10.07;;;2.50;99.90;;;;;;5051553;28;20240;-77
2022/11/19 10:13:22;;;;;;;12.80;9.77;;;2.50;99.90;;;;;;5051930;28;20614;-79
2022/11/19 10:16:02;;;;;;;14.10;9.70;;;2.60;99.90;;;;;;5034443;28;20201;-77
2022/11/19 10:18:39;;;;;;;12.57;9.23;;;2.60;99.90;;;;;;5051401;28;20194;-79
2022/11/19 10:21:13;;;;;;;13.70;9.57;;;2.70;99.90;;;;;;5051817;28;20189;-79
2022/11/19 10:23:49;;;;;;;11.70;9.40;;;2.60;99.90;;;;;;5051351;28;20250;-77
2022/11/19 10:26:18;;;;;;;12.60;9.30;;;2.70;99.90;;;;;;5051240;28;20566;-77
2022/11/19 10:28:53;;;;;;;12.00;9.47;;;2.80;99.90;;;;;;5051983;28;20569;-78
2022/11/19 10:31:29;;;;;;;12.67;9.53;;;2.80;99.90;;;;;;5051696;28;20308;-77
2022/11/19 10:34:04;;;;;;;13.60;10.07;;;2.90;99.90;;;;;;5050695;28;20236;-79
2022/11/19 10:36:36;;;;;;;12.13;8.60;;;2.90;99.90;;;;;;5051668;28;20190;-78
2022/11/19 10:39:10;;;;;;;11.87;9.13;;;3.00;99.90;;;;;;5051430;28;20255;-78
2022/11/19 10:41:45;;;;;;;11.07;8.50;;;3.00;99.90;;;;;;5051457;28;20198;-78
2022/11/19 10:47:03;;;;;;;10.93;8.77;;;3.20;99.90;;;;;;5051096;28;20197;-78
2022/11/19 10:49:32;;;;;;;10.73;8.40;;;3.30;99.90;;;;;;5034592;28;20213;-79
2022/11/19 10:51:58;;;;;;;11.17;8.37;;;3.30;99.90;;;;;;5051723;28;20661;-78
2022/11/19 10:54:28;;;;;;;11.13;8.33;;;3.40;99.90;;;;;;5050723;28;20206;-80
2022/11/19 10:56:56;;;;;;;10.10;7.70;;;3.40;99.90;;;;;;5051284;28;20208;-79
2022/11/19 10:59:26;;;;;;;8.83;7.30;;;3.50;99.90;;;;;;5050920;28;20198;-79
2022/11/19 11:01:56;;;;;;;11.07;7.77;;;3.50;99.90;;;;;;5051180;28;20194;-80
2022/11/19 11:04:27;;;;;;;9.57;8.03;;;3.60;99.90;;;;;;5051500;28;20324;-78
2022/11/19 11:06:56;;;;;;;9.73;7.60;;;3.60;99.90;;;;;;5051972;28;20225;-79
2022/11/19 11:09:30;;;;;;;10.40;7.60;;;3.70;99.90;;;;;;5051027;28;20751;-76
2022/11/19 11:14:53;;;;;;;9.33;7.20;;;3.90;99.90;;;;;;5050086;28;20197;-81
2022/11/19 11:17:23;;;;;;;8.90;6.60;;;3.90;99.90;;;;;;5052191;28;20591;-79
2022/11/19 11:20:05;;;;;;;7.73;6.30;;;4.00;99.90;;;;;;5055384;28;20293;-78
2022/11/19 11:22:33;;;;;;;8.67;6.73;;;4.10;97.10;;;;;;5054479;28;20229;-79
2022/11/19 11:25:00;;;;;;;6.87;5.73;;;4.10;99.60;;;;;;5054023;28;20598;-79
2022/11/19 11:27:32;;;;;;;8.07;6.10;;;4.10;84.60;;;;;;5055243;28;20614;-79
2022/11/19 11:30:17;;;;;;;7.53;5.80;;;4.10;67.50;;;;;;5059835;28;20259;-79
2022/11/19 11:32:44;;;;;;;7.33;5.67;;;4.10;83.00;;;;;;5074833;28;20221;-79
2022/11/19 11:35:31;;;;;;;6.43;5.50;;;4.10;70.40;;;;;;5070591;28;20233;-80
2022/11/19 11:37:59;;;;;;;6.93;5.80;;;4.10;17.00;;;;;;5054771;28;20231;-76
2022/11/19 11:40:26;;;;;;;7.60;5.50;;;4.20;12.10;;;;;;5054608;28;20201;-78
2022/11/19 11:42:54;;;;;;;6.27;5.50;;;4.20;1.00;;;;;;5053569;28;20243;-78
2022/11/19 11:45:31;;;;;;;9.27;5.40;;;4.30;1.00;;;;;;5061923;28;20605;-79
2022/11/19 11:48:03;;;;;;;7.43;5.60;;;4.30;1.00;;;;;;5074685;28;20203;-80
2022/11/19 11:50:32;;;;;;;5.63;4.83;;;4.30;1.00;;;;;;5062282;28;20226;-79
2022/11/19 11:52:58;;;;;;;6.00;5.07;;;4.30;1.00;;;;;;5053902;28;20701;-78
2022/11/19 11:55:33;;;;;;;6.27;4.90;;;4.40;1.00;;;;;;5054462;28;20207;-78
2022/11/19 11:58:02;;;;;;;6.63;5.30;;;4.40;1.00;;;;;;5053747;28;20209;-78
2022/11/19 12:00:32;;;;;;;5.83;4.70;;;4.50;1.00;;;;;;5054941;28;20201;-77
2022/11/19 12:03:00;;;;;;;6.17;4.80;;;4.50;1.00;;;;;;5053552;28;20328;-78
2022/11/19 12:05:35;;;;;;;7.87;4.50;;;4.50;1.00;;;;;;5053630;28;20294;-79
2022/11/19 12:08:05;;;;;;;4.77;4.27;;;4.50;1.00;;;;;;5054368;28;20281;-79
2022/11/19 12:10:41;;;;;;;5.07;4.50;;;4.50;1.00;;;;;;5053704;28;20289;-78
2022/11/19 12:13:41;;;;;;;6.87;4.30;;;4.50;1.00;;;;;;5054071;28;20603;-77
2022/11/19 12:16:14;;;;;;;6.57;4.20;;;4.50;1.00;;;;;;5054118;28;20513;-78
2022/11/19 12:18:51;;;;;;;4.83;4.03;;;4.60;1.00;;;;;;5053512;28;20456;-77
2022/11/19 12:21:33;;;;;;;4.77;4.17;;;4.60;1.00;;;;;;5054210;28;20197;-78
2022/11/19 12:24:17;;;;;;;4.97;4.07;;;4.60;1.00;;;;;;5054056;28;20226;-78
2022/11/19 12:26:52;;;;;;;4.70;4.07;;;4.50;1.00;;;;;;5070291;28;20587;-76
2022/11/19 12:29:27;;;;;;;5.10;3.97;;;4.50;1.00;;;;;;5053429;28;20553;-77
2022/11/19 12:32:16;;;;;;;5.27;4.40;;;4.50;1.00;;;;;;5053270;28;20212;-77
2022/11/19 12:35:04;;;;;;;6.47;4.40;;;4.50;1.00;;;;;;5053977;28;20194;-78
2022/11/19 12:38:03;;;;;;;5.13;4.37;;;4.60;99.90;;;;;;5054642;28;20205;-79
2022/11/19 12:40:42;;;;;;;5.10;4.23;;;4.50;99.90;;;;;;5052748;28;20193;-78
2022/11/19 12:43:22;;;;;;;4.50;3.80;;;4.60;1.00;;;;;;5067410;28;20556;-78
2022/11/19 12:46:01;;;;;;;5.40;4.40;;;4.60;99.90;;;;;;5072642;28;20201;-78
2022/11/19 12:48:49;;;;;;;7.60;5.00;;;4.60;17.00;;;;;;5066728;28;20226;-79
2022/11/19 12:51:29;;;;;;;5.77;4.63;;;4.60;99.90;;;;;;5053138;28;20241;-78
2022/11/19 12:54:19;;;;;;;7.10;5.17;;;4.60;99.90;;;;;;5054304;28;20190;-78
2022/11/19 12:56:59;;;;;;;5.50;4.77;;;4.60;1.00;;;;;;5073560;28;20212;-79
2022/11/19 12:59:44;;;;;;;5.00;4.50;;;4.50;1.00;;;;;;5057428;28;20202;-77
2022/11/19 13:02:18;;;;;;;5.33;4.60;;;4.50;1.00;;;;;;5068501;28;20254;-79
2022/11/19 13:04:52;;;;;;;5.00;4.50;;;4.50;1.00;;;;;;5061712;28;20228;-78
2022/11/19 13:07:23;;;;;;;5.13;4.50;;;4.50;1.00;;;;;;5052866;28;20198;-79
2022/11/19 13:09:54;;;;;;;6.33;4.67;;;4.60;1.00;;;;;;5053729;28;20312;-79
2022/11/19 13:12:27;;;;;;;6.20;4.70;;;4.60;1.00;;;;;;5052950;28;20305;-78
2022/11/19 13:14:57;;;;;;;5.23;4.37;;;4.50;1.00;;;;;;5035096;28;20198;-80
2022/11/19 13:17:31;;;;;;;6.87;4.77;;;4.50;1.00;;;;;;5053116;28;20221;-78
2022/11/19 13:20:02;;;;;;;6.37;4.77;;;4.50;1.00;;;;;;5052613;28;20305;-78